createdAt,value
2019-05-23T00:01:23.041Z,67.17
2019-05-23T00:04:08.028Z,67.45
2019-05-23T00:06:40.823Z,67.96
2019-05-23T00:09:13.986Z,68.30
2019-05-23T00:11:49.712Z,68.57
2019-05-23T00:14:34.325Z,69.37
2019-05-23T00:17:06.630Z,69.07
2019-05-23T00:19:40.629Z,70.27
2019-05-23T00:22:13.467Z,71.28
2019-05-23T00:24:48.111Z,69.74
2019-05-23T00:27:22.499Z,69.73
2019-05-23T00:29:55.007Z,69.20
2019-05-23T00:32:33.265Z,69.04
2019-05-23T00:35:06.760Z,68.52
2019-05-23T00:37:40.675Z,68.12
2019-05-23T00:40:13.392Z,70.33
2019-05-23T00:42:46.231Z,69.77
2019-05-23T00:45:21.245Z,67.64
2019-05-23T00:47:55.225Z,68.09
2019-05-23T00:50:28.267Z,68.20
2019-05-23T00:53:00.785Z,67.90
2019-05-23T00:55:33.253Z,69.19
2019-05-23T00:58:05.903Z,67.97
2019-05-23T01:00:37.770Z,68.44
2019-05-23T01:03:11.462Z,68.96
2019-05-23T01:05:43.943Z,68.55
2019-05-23T01:08:16.964Z,67.88
2019-05-23T01:10:50.114Z,67.46
2019-05-23T01:13:23.536Z,67.89
2019-05-23T01:15:56.143Z,66.36
2019-05-23T01:18:28.919Z,66.55
2019-05-23T01:21:37.765Z,66.39
2019-05-23T01:24:27.756Z,66.54
2019-05-23T01:27:02.046Z,66.72
2019-05-23T01:29:40.045Z,67.36
2019-05-23T01:32:31.323Z,69.10
2019-05-23T01:35:05.178Z,67.11
2019-05-23T01:37:36.635Z,64.63
2019-05-23T01:40:10.872Z,63.90
2019-05-23T01:42:43.937Z,62.42
2019-05-23T01:45:17.758Z,62.34
2019-05-23T01:47:50.519Z,62.83
2019-05-23T01:50:26.694Z,60.83
2019-05-23T01:52:59.643Z,62.47
2019-05-23T01:55:32.633Z,63.33
2019-05-23T01:58:05.674Z,64.80
2019-05-23T02:00:38.384Z,64.15
2019-05-23T02:03:10.786Z,63.67
2019-05-23T02:05:44.120Z,63.45
2019-05-23T02:08:16.892Z,63.90
2019-05-23T02:10:48.997Z,65.11
2019-05-23T02:13:21.988Z,66.21
2019-05-23T02:15:54.743Z,67.90
2019-05-23T02:18:28.432Z,68.85
2019-05-23T02:21:00.966Z,69.51
2019-05-23T02:23:32.593Z,69.96
2019-05-23T02:26:04.888Z,70.32
2019-05-23T02:28:37.474Z,70.50
2019-05-23T02:31:11.586Z,70.31
2019-05-23T02:33:45.398Z,70.44
2019-05-23T02:36:17.741Z,70.29
2019-05-23T02:39:16.094Z,70.07
2019-05-23T02:42:07.256Z,70.22
2019-05-23T02:44:39.624Z,70.33
2019-05-23T02:47:37.097Z,69.64
2019-05-23T02:50:14.721Z,68.85
2019-05-23T02:52:51.685Z,69.13
2019-05-23T02:55:33.354Z,68.86
2019-05-23T02:58:36.562Z,68.34
2019-05-23T03:01:48.923Z,68.83
2019-05-23T03:04:25.115Z,67.81
2019-05-23T03:06:58.872Z,68.22
2019-05-23T03:09:36.323Z,67.63
2019-05-23T03:12:12.175Z,67.27
2019-05-23T03:14:45.843Z,67.84
2019-05-23T03:17:21.174Z,67.42
2019-05-23T03:19:56.867Z,67.20
2019-05-23T03:22:40.358Z,66.56
2019-05-23T03:25:55.348Z,65.80
2019-05-23T03:28:29.958Z,65.56
2019-05-23T03:31:27.054Z,64.82
2019-05-23T03:33:41.016Z,65.28
2019-05-23T03:36:13.337Z,64.24
2019-05-23T03:38:49.195Z,64.23
2019-05-23T03:41:23.169Z,63.96
2019-05-23T03:43:55.421Z,64.17
2019-05-23T03:46:29.618Z,62.96
2019-05-23T03:49:02.328Z,62.24
2019-05-23T03:51:36.769Z,62.18
2019-05-23T03:54:11.245Z,61.35
2019-05-23T03:56:42.704Z,61.48
2019-05-23T03:59:15.808Z,61.72
2019-05-23T04:01:49.597Z,61.35
2019-05-23T04:04:22.290Z,61.30
2019-05-23T04:06:55.055Z,61.29
2019-05-23T04:09:28.021Z,61.85
2019-05-23T04:12:19.057Z,61.11
2019-05-23T04:15:01.618Z,59.76
2019-05-23T04:17:35.984Z,59.38
2019-05-23T04:20:09.034Z,59.20
2019-05-23T04:22:41.944Z,59.29
2019-05-23T04:25:40.688Z,59.70
2019-05-23T04:28:22.266Z,59.73
2019-05-23T04:30:52.719Z,59.78
2019-05-23T04:33:25.235Z,60.87
2019-05-23T04:35:57.452Z,60.16
2019-05-23T04:38:29.143Z,60.53
2019-05-23T04:41:01.682Z,60.94
2019-05-23T04:43:33.835Z,60.21
2019-05-23T04:46:06.107Z,61.65
2019-05-23T04:48:39.104Z,60.69
2019-05-23T04:51:11.004Z,59.88
2019-05-23T04:53:43.207Z,59.68
2019-05-23T04:56:16.139Z,59.51
2019-05-23T04:58:47.777Z,59.45
2019-05-23T05:01:21.722Z,59.99
2019-05-23T05:03:55.295Z,57.99
2019-05-23T05:06:27.359Z,58.07
2019-05-23T05:09:00.584Z,56.99
2019-05-23T05:11:33.439Z,57.24
2019-05-23T05:14:08.475Z,57.42
2019-05-23T05:16:41.187Z,57.31
2019-05-23T05:19:12.744Z,57.34
2019-05-23T05:21:44.717Z,57.59
2019-05-23T05:24:16.406Z,57.58
2019-05-23T05:26:48.765Z,56.99
2019-05-23T05:29:20.857Z,57.56
2019-05-23T05:31:52.454Z,58.42
2019-05-23T05:34:25.260Z,58.10
2019-05-23T05:36:57.885Z,57.37
2019-05-23T05:39:30.333Z,55.78
2019-05-23T05:42:02.600Z,53.37
2019-05-23T05:44:34.412Z,53.38
2019-05-23T05:47:08.613Z,54.86
2019-05-23T05:49:42.323Z,54.81
2019-05-23T05:52:16.412Z,54.15
2019-05-23T05:54:48.424Z,53.82
2019-05-23T05:57:20.002Z,53.71
2019-05-23T05:59:52.517Z,55.17
2019-05-23T06:02:26.344Z,55.44
2019-05-23T06:04:58.097Z,54.91
2019-05-23T06:07:35.625Z,53.06
2019-05-23T06:10:15.508Z,53.27
2019-05-23T06:12:51.137Z,53.30
2019-05-23T06:15:25.422Z,51.50
2019-05-23T06:17:57.201Z,52.50
2019-05-23T06:20:31.462Z,50.78
2019-05-23T06:23:05.731Z,49.96
2019-05-23T06:25:38.128Z,47.92
2019-05-23T06:28:13.760Z,46.44
2019-05-23T06:30:46.608Z,47.20
2019-05-23T06:33:23.652Z,47.73
2019-05-23T06:35:53.166Z,47.79
2019-05-23T06:38:25.005Z,49.23
2019-05-23T06:40:57.261Z,50.82
2019-05-23T06:43:41.929Z,51.53
2019-05-23T06:46:14.999Z,52.43
2019-05-23T06:48:50.034Z,53.34
2019-05-23T06:51:22.292Z,51.72
2019-05-23T06:53:55.503Z,51.30
2019-05-23T06:56:28.414Z,51.26
2019-05-23T06:59:03.239Z,49.98
2019-05-23T07:01:35.880Z,48.29
2019-05-23T07:04:08.774Z,48.11
2019-05-23T07:06:51.125Z,48.49
2019-05-23T07:09:24.418Z,47.78
2019-05-23T07:12:00.817Z,45.58
2019-05-23T07:14:33.896Z,45.84
2019-05-23T07:17:06.841Z,43.87
2019-05-23T07:19:41.579Z,44.04
2019-05-23T07:22:18.030Z,42.55
2019-05-23T07:24:58.224Z,42.87
2019-05-23T07:27:30.587Z,44.44
2019-05-23T07:30:04.371Z,44.84
2019-05-23T07:32:39.368Z,44.50
2019-05-23T07:35:12.036Z,44.89
2019-05-23T07:37:44.709Z,45.32
2019-05-23T07:40:24.085Z,46.94
2019-05-23T07:43:01.664Z,46.87
2019-05-23T07:45:39.831Z,46.78
2019-05-23T07:48:14.119Z,47.33
2019-05-23T07:50:48.293Z,49.39
2019-05-23T07:53:46.261Z,47.67
2019-05-23T07:56:21.023Z,49.53
2019-05-23T07:58:53.638Z,48.35
2019-05-23T08:01:28.460Z,47.58
2019-05-23T08:04:18.031Z,48.32
2019-05-23T08:06:35.869Z,51.40
2019-05-23T08:09:09.926Z,52.11
2019-05-23T08:12:10.516Z,52.85
2019-05-23T08:14:43.203Z,54.01
2019-05-23T08:17:15.608Z,53.90
2019-05-23T08:19:50.061Z,53.99
2019-05-23T08:22:21.562Z,53.66
2019-05-23T08:24:57.290Z,53.35
2019-05-23T08:27:31.426Z,53.54
2019-05-23T08:30:06.241Z,53.38
2019-05-23T08:32:39.079Z,52.44
2019-05-23T08:35:15.680Z,51.92
2019-05-23T08:37:45.153Z,49.79
2019-05-23T08:40:18.893Z,46.75
2019-05-23T08:42:50.488Z,45.91
2019-05-23T08:45:23.930Z,44.25
2019-05-23T08:47:56.424Z,43.05
2019-05-23T08:50:29.373Z,43.93
2019-05-23T08:53:02.083Z,42.36
2019-05-23T08:55:37.362Z,42.66
2019-05-23T08:58:11.711Z,43.45
2019-05-23T09:00:47.641Z,42.13
2019-05-23T09:03:20.230Z,40.78
2019-05-23T09:05:53.036Z,39.55
2019-05-23T09:08:26.320Z,38.16
2019-05-23T09:10:58.436Z,41.82
2019-05-23T09:13:30.998Z,40.17
2019-05-23T09:16:03.480Z,41.57
2019-05-23T09:18:35.890Z,43.46
2019-05-23T09:21:08.277Z,42.40
2019-05-23T09:23:40.701Z,42.16
2019-05-23T09:26:16.087Z,40.63
2019-05-23T09:28:47.694Z,41.81
2019-05-23T09:31:23.009Z,41.55
2019-05-23T09:33:55.608Z,38.58
2019-05-23T09:36:29.756Z,38.44
2019-05-23T09:39:10.366Z,38.92
2019-05-23T09:41:42.037Z,40.59
2019-05-23T09:44:16.930Z,39.83
2019-05-23T09:46:48.913Z,39.55
2019-05-23T09:49:20.569Z,39.02
2019-05-23T09:51:57.341Z,38.55
2019-05-23T09:54:27.941Z,39.12
2019-05-23T09:57:00.600Z,38.57
2019-05-23T09:59:33.174Z,36.98
2019-05-23T10:02:06.527Z,35.97
2019-05-23T10:04:38.881Z,36.35
2019-05-23T10:07:10.926Z,36.92
2019-05-23T10:09:43.414Z,36.32
2019-05-23T10:12:22.711Z,37.45
2019-05-23T10:14:54.251Z,34.66
2019-05-23T10:17:26.597Z,36.08
2019-05-23T10:19:59.125Z,37.36
2019-05-23T10:22:31.581Z,34.82
2019-05-23T10:25:03.835Z,33.91
2019-05-23T10:27:35.511Z,34.66
2019-05-23T10:30:09.977Z,33.84
2019-05-23T10:32:42.255Z,34.94
2019-05-23T10:35:14.505Z,34.41
2019-05-23T10:37:46.941Z,35.96
2019-05-23T10:40:19.361Z,36.36
2019-05-23T10:42:51.791Z,34.94
2019-05-23T10:45:24.046Z,37.33
2019-05-23T10:47:55.855Z,37.53
2019-05-23T10:50:41.955Z,38.83
2019-05-23T10:53:02.358Z,38.32
2019-05-23T10:55:35.078Z,38.66
2019-05-23T10:58:08.145Z,37.58
2019-05-23T11:00:41.353Z,38.55
2019-05-23T11:03:15.200Z,37.04
2019-05-23T11:05:47.942Z,36.10
2019-05-23T11:08:20.511Z,36.22
2019-05-23T11:10:53.069Z,35.66
2019-05-23T11:13:27.609Z,34.55
2019-05-23T11:16:00.065Z,36.94
2019-05-23T11:18:32.132Z,36.47
2019-05-23T11:21:03.716Z,34.78
2019-05-23T11:23:40.868Z,36.02
2019-05-23T11:26:13.621Z,34.13
2019-05-23T11:28:45.271Z,37.07
2019-05-23T11:31:18.293Z,35.72
2019-05-23T11:33:49.770Z,35.53
2019-05-23T11:36:34.563Z,36.72
2019-05-23T11:38:56.062Z,35.63
2019-05-23T11:41:27.674Z,35.25
2019-05-23T11:44:00.178Z,36.24
2019-05-23T11:46:35.810Z,37.35
2019-05-23T11:49:08.959Z,36.95
2019-05-23T11:51:41.075Z,35.13
2019-05-23T11:54:12.649Z,33.60
2019-05-23T11:56:46.616Z,31.67
2019-05-23T11:59:19.160Z,32.32
2019-05-23T12:02:13.554Z,32.42
2019-05-23T12:04:45.970Z,36.76
2019-05-23T12:07:30.489Z,35.86
2019-05-23T12:10:03.015Z,46.08
2019-05-23T12:12:34.977Z,51.40
2019-05-23T12:15:11.492Z,54.50
2019-05-23T12:17:46.195Z,56.17
2019-05-23T12:20:21.548Z,57.84
2019-05-23T12:22:53.214Z,57.02
2019-05-23T12:25:27.489Z,55.01
2019-05-23T12:27:59.654Z,54.47
2019-05-23T12:30:33.902Z,56.35
2019-05-23T12:33:06.238Z,57.50
2019-05-23T12:35:37.923Z,56.02
2019-05-23T12:38:10.033Z,55.10
2019-05-23T12:40:44.736Z,55.69
2019-05-23T12:43:16.996Z,56.65
2019-05-23T12:45:49.475Z,57.53
2019-05-23T12:48:38.432Z,59.14
2019-05-23T12:51:11.377Z,60.57
2019-05-23T12:53:43.845Z,62.27
2019-05-23T12:56:17.425Z,63.35
2019-05-23T12:58:50.358Z,62.61
2019-05-23T13:01:23.002Z,60.59
2019-05-23T13:04:11.145Z,59.36
2019-05-23T13:06:43.281Z,61.09
2019-05-23T13:09:14.858Z,62.30
2019-05-23T13:11:47.105Z,63.54
2019-05-23T13:14:20.317Z,64.99
2019-05-23T13:16:54.235Z,64.11
2019-05-23T13:19:26.896Z,63.49
2019-05-23T13:21:59.088Z,59.73
2019-05-23T13:24:52.045Z,59.76
2019-05-23T13:27:14.410Z,59.52
2019-05-23T13:29:46.479Z,58.08
2019-05-23T13:32:18.694Z,56.91
2019-05-23T13:34:50.707Z,57.16
2019-05-23T13:37:22.912Z,56.11
2019-05-23T13:39:54.751Z,57.41
2019-05-23T13:42:26.243Z,57.16
2019-05-23T13:44:58.771Z,56.87
2019-05-23T13:47:31.125Z,56.50
2019-05-23T13:50:03.378Z,57.16
2019-05-23T13:52:36.232Z,56.57
2019-05-23T13:55:08.259Z,57.01
2019-05-23T13:57:40.517Z,57.90
2019-05-23T14:00:16.619Z,58.46
2019-05-23T14:02:48.039Z,56.84
2019-05-23T14:05:20.863Z,57.25
2019-05-23T14:08:10.037Z,58.06
2019-05-23T14:10:26.896Z,56.82
2019-05-23T14:12:58.935Z,56.58
2019-05-23T14:15:41.085Z,56.77
2019-05-23T14:18:17.253Z,57.39
2019-05-23T14:20:49.403Z,55.71
2019-05-23T14:23:29.060Z,56.69
2019-05-23T14:26:01.849Z,57.12
2019-05-23T14:28:34.305Z,57.03
2019-05-23T14:31:14.853Z,58.17
2019-05-23T14:33:50.277Z,59.37
2019-05-23T14:36:47.651Z,59.85
2019-05-23T14:39:31.096Z,58.89
2019-05-23T14:42:18.288Z,58.11
2019-05-23T14:44:50.922Z,57.07
2019-05-23T14:47:40.628Z,55.88
2019-05-23T14:50:35.101Z,55.22
2019-05-23T14:53:07.400Z,54.94
2019-05-23T14:55:39.911Z,55.66
2019-05-23T14:58:11.798Z,55.87
2019-05-23T15:00:44.745Z,55.45
2019-05-23T15:03:17.775Z,57.21
2019-05-23T15:05:50.086Z,55.86
2019-05-23T15:08:22.012Z,56.03
2019-05-23T15:10:53.739Z,55.25
2019-05-23T15:13:25.670Z,53.34
2019-05-23T15:15:57.923Z,52.38
2019-05-23T15:18:30.039Z,51.75
2019-05-23T15:21:01.915Z,51.59
2019-05-23T15:23:33.401Z,51.73
2019-05-23T15:26:21.764Z,50.27
2019-05-23T15:28:39.893Z,50.54
2019-05-23T15:31:11.698Z,50.76
2019-05-23T15:33:44.060Z,51.91
2019-05-23T15:36:16.177Z,51.34
2019-05-23T15:38:48.763Z,50.89
2019-05-23T15:41:21.021Z,51.24
2019-05-23T15:43:52.648Z,51.49
2019-05-23T15:46:24.854Z,51.50
2019-05-23T15:48:56.921Z,51.79
2019-05-23T15:51:34.542Z,52.20
2019-05-23T15:54:29.183Z,52.70
2019-05-23T15:57:23.528Z,52.05
2019-05-23T16:00:00.022Z,51.99
2019-05-23T16:02:36.095Z,51.82
2019-05-23T16:05:10.089Z,51.78
2019-05-23T16:07:44.999Z,51.58
2019-05-23T16:10:18.206Z,51.37
2019-05-23T16:14:38.260Z,51.20
2019-05-23T16:15:35.544Z,51.45
2019-05-23T16:18:07.927Z,51.82
2019-05-23T16:20:41.400Z,52.28
2019-05-23T16:23:13.868Z,52.67
2019-05-23T16:25:48.717Z,51.75
2019-05-23T16:28:21.275Z,51.83
2019-05-23T16:30:58.373Z,53.48
2019-05-23T16:33:38.898Z,55.66
2019-05-23T16:36:11.632Z,54.80
2019-05-23T16:38:43.396Z,59.85
2019-05-23T16:41:26.118Z,61.12
2019-05-23T16:44:08.899Z,61.83
2019-05-23T16:46:46.122Z,61.96
2019-05-23T16:49:41.663Z,61.93
2019-05-23T16:52:31.592Z,63.37
2019-05-23T16:55:21.774Z,62.87
2019-05-23T16:58:09.038Z,63.14
2019-05-23T17:01:01.300Z,63.86
2019-05-23T17:04:02.727Z,63.81
2019-05-23T17:06:54.493Z,64.65
2019-05-23T17:10:06.924Z,65.85
2019-05-23T17:12:42.856Z,65.68
2019-05-23T17:15:45.604Z,65.48
2019-05-23T17:18:41.921Z,65.78
2019-05-23T17:21:27.383Z,66.19
2019-05-23T17:24:26.531Z,65.76
2019-05-23T17:30:44.617Z,66.46
2019-05-23T17:37:39.295Z,67.23
2019-05-23T17:41:28.523Z,67.43
2019-05-23T17:43:44.669Z,67.27
2019-05-23T17:46:27.484Z,65.80
2019-05-23T17:49:14.583Z,64.81
2019-05-23T17:51:54.860Z,66.69
2019-05-23T17:54:32.971Z,64.38
2019-05-23T18:01:32.196Z,60.64
2019-05-23T19:38:38.825Z,65.41
2019-05-23T19:41:14.423Z,65.00
2019-05-23T19:43:58.265Z,63.06
2019-05-23T19:46:51.361Z,63.81
2019-05-23T19:58:03.900Z,62.16
2019-05-23T20:00:59.406Z,61.61
2019-05-23T20:03:32.797Z,61.73
2019-05-23T20:06:06.787Z,61.81
2019-05-23T20:08:49.771Z,61.55
2019-05-23T20:11:22.405Z,62.08
2019-05-23T20:13:54.837Z,61.40
2019-05-23T20:16:27.297Z,61.73
2019-05-23T20:18:59.977Z,61.66
2019-05-23T20:21:32.215Z,61.57
2019-05-23T20:24:08.146Z,61.53
2019-05-23T20:26:45.176Z,61.30
2019-05-23T20:29:16.673Z,61.63
2019-05-23T20:31:50.023Z,61.76
2019-05-23T20:34:25.413Z,62.09
2019-05-23T20:37:00.261Z,62.50
2019-05-23T20:39:36.451Z,62.73
2019-05-23T20:42:11.597Z,62.96
2019-05-23T20:44:42.398Z,63.29
2019-05-23T20:47:17.592Z,63.81
2019-05-23T20:49:49.901Z,63.85
2019-05-23T20:52:22.212Z,64.08
2019-05-23T20:54:54.192Z,64.12
2019-05-23T20:57:26.900Z,64.20
2019-05-23T20:59:59.433Z,64.20
2019-05-23T21:02:36.110Z,64.29
2019-05-23T21:05:08.846Z,64.18
2019-05-23T21:07:41.325Z,64.33
2019-05-23T21:10:16.313Z,64.31
2019-05-23T21:13:01.992Z,64.37
2019-05-23T21:15:33.431Z,64.52
2019-05-23T21:18:05.767Z,64.92
2019-05-23T21:20:38.212Z,64.80
2019-05-23T21:23:10.264Z,64.53
2019-05-23T21:25:46.607Z,65.00
2019-05-23T21:28:18.128Z,66.36
2019-05-23T21:30:50.421Z,66.79
2019-05-23T21:33:22.538Z,66.51
2019-05-23T21:35:54.614Z,66.32
2019-05-23T21:38:27.294Z,66.30
2019-05-23T21:41:03.250Z,66.57
2019-05-23T21:43:33.924Z,66.25
2019-05-23T21:46:06.146Z,66.53
2019-05-23T21:48:37.650Z,66.08
2019-05-23T21:51:10.194Z,66.09
2019-05-23T21:53:42.620Z,66.16
2019-05-23T21:56:15.031Z,65.72
2019-05-23T21:58:47.058Z,65.54
2019-05-23T22:01:37.860Z,65.47
2019-05-23T22:04:27.799Z,65.16
2019-05-23T22:07:10.888Z,65.23
2019-05-23T22:09:42.562Z,65.31
2019-05-23T22:12:15.607Z,65.05
2019-05-23T22:14:48.268Z,65.52
2019-05-23T22:17:22.429Z,65.45
2019-05-23T22:19:54.582Z,65.83
2019-05-23T22:22:26.080Z,66.35
2019-05-23T22:24:58.543Z,66.68
2019-05-23T22:27:30.923Z,66.97
2019-05-23T22:30:02.522Z,66.66
2019-05-23T22:32:35.093Z,66.46
2019-05-23T22:35:15.025Z,66.27
2019-05-23T22:37:47.498Z,65.33
2019-05-23T22:40:19.488Z,64.72
2019-05-23T22:42:51.244Z,64.59
2019-05-23T22:45:26.222Z,64.49
2019-05-23T22:47:58.621Z,63.86
2019-05-23T22:50:30.795Z,63.81
2019-05-23T22:53:03.313Z,63.43
2019-05-23T22:55:34.785Z,63.12
2019-05-23T22:58:07.575Z,62.97
2019-05-23T23:00:41.584Z,62.78
2019-05-23T23:03:13.092Z,63.35
2019-05-23T23:05:45.516Z,62.70
2019-05-23T23:08:18.281Z,62.56
2019-05-23T23:10:50.336Z,62.17
2019-05-23T23:13:37.729Z,62.59
2019-05-23T23:15:56.666Z,61.81
2019-05-23T23:18:28.768Z,61.53
2019-05-23T23:21:01.141Z,62.17
2019-05-23T23:23:33.552Z,61.32
2019-05-23T23:26:06.102Z,61.60
2019-05-23T23:28:37.958Z,61.36
2019-05-23T23:31:10.087Z,61.71
2019-05-23T23:33:42.486Z,61.10
2019-05-23T23:36:14.055Z,61.25
2019-05-23T23:38:46.169Z,61.89
2019-05-23T23:41:17.761Z,60.55
2019-05-23T23:43:59.286Z,60.31
2019-05-23T23:46:41.629Z,59.86
2019-05-23T23:49:32.057Z,59.94
2019-05-23T23:52:21.623Z,60.10
2019-05-23T23:55:11.199Z,60.58
2019-05-23T23:58:00.803Z,60.36
